Time;durP1;ratioP1;P1;durP2;ratioP2;P2;SDS_P1;SDS_P2;PMS_P1;PMS_P2;Temp;Humidity;BMP_temperature;BMP_pressure;BME280_temperature;BME280_humidity;BME280_pressure;Samples;Min_cycle;Max_cycle;Signal;HPM_P1;HPM_P2
2022/01/02 00:00:19;;;;;;;6.80;4.88;;;;;;;;;;5033191;28;20495;-74
2022/01/02 00:02:59;;;;;;;11.40;5.00;;;;;;;;;;5024717;28;20041;-74
2022/01/02 00:05:27;;;;;;;7.28;4.03;;;;;;;;;;5042849;28;20021;-74
2022/01/02 00:07:56;;;;;;;7.70;4.40;;;;;;;;;;5034040;28;20052;-74
2022/01/02 00:10:22;;;;;;;7.53;4.28;;;;;;;;;;5012651;28;20127;-75
2022/01/02 00:12:52;;;;;;;6.05;3.60;;;;;;;;;;5034249;28;20762;-74
2022/01/02 00:15:21;;;;;;;4.85;3.40;;;;;;;;;;5034204;28;20083;-74
2022/01/02 00:17:50;;;;;;;5.97;3.63;;;;;;;;;;5029950;28;20025;-73
2022/01/02 00:20:19;;;;;;;6.28;2.88;;;;;;;;;;5036608;28;20040;-74
2022/01/02 00:22:49;;;;;;;6.68;2.60;;;;;;;;;;5039163;28;20025;-74
2022/01/02 00:25:26;;;;;;;8.35;2.90;;;;;;;;;;5032040;28;20041;-73
2022/01/02 00:27:53;;;;;;;5.53;2.53;;;;;;;;;;5032973;28;20045;-74
2022/01/02 00:30:19;;;;;;;3.88;1.95;;;;;;;;;;5035661;28;20036;-74
2022/01/02 00:32:45;;;;;;;4.13;2.17;;;;;;;;;;5036311;28;20033;-73
2022/01/02 00:35:12;;;;;;;3.85;2.13;;;;;;;;;;5034322;28;20040;-74
2022/01/02 00:37:40;;;;;;;4.80;1.75;;;;;;;;;;5032443;28;20021;-74
2022/01/02 00:40:06;;;;;;;4.75;1.90;;;;;;;;;;5035379;28;20557;-74
2022/01/02 00:42:36;;;;;;;6.38;2.10;;;;;;;;;;5032910;28;20422;-74
2022/01/02 00:45:11;;;;;;;5.18;2.20;;;;;;;;;;5037556;28;20021;-73
2022/01/02 00:47:37;;;;;;;5.25;2.00;;;;;;;;;;5037461;28;20037;-73
2022/01/02 00:50:11;;;;;;;4.07;2.08;;;;;;;;;;5038350;28;20038;-74
2022/01/02 00:52:39;;;;;;;5.63;1.90;;;;;;;;;;5035853;28;20026;-73
2022/01/02 00:55:07;;;;;;;4.57;2.13;;;;;;;;;;5038724;28;20385;-75
2022/01/02 00:57:37;;;;;;;5.07;2.08;;;;;;;;;;5031204;28;20032;-74
2022/01/02 01:00:04;;;;;;;4.97;2.03;;;;;;;;;;5039149;28;20436;-74
2022/01/02 01:02:34;;;;;;;5.30;1.92;;;;;;;;;;5033045;28;20548;-75
2022/01/02 01:05:02;;;;;;;3.75;2.00;;;;;;;;;;5036713;28;20052;-75
2022/01/02 01:07:29;;;;;;;2.25;1.55;;;;;;;;;;5029487;28;20139;-74
2022/01/02 01:09:56;;;;;;;4.03;1.70;;;;;;;;;;5033451;28;20485;-73
2022/01/02 01:12:23;;;;;;;3.78;2.00;;;;;;;;;;5032881;28;20026;-76
2022/01/02 01:14:50;;;;;;;4.55;1.67;;;;;;;;;;5013484;28;20622;-74
2022/01/02 01:17:17;;;;;;;5.65;1.50;;;;;;;;;;5026508;28;20033;-75
2022/01/02 01:19:44;;;;;;;4.70;1.50;;;;;;;;;;5031402;28;20510;-75
2022/01/02 01:22:10;;;;;;;3.47;1.33;;;;;;;;;;5030729;28;20061;-75
2022/01/02 01:24:36;;;;;;;5.05;1.65;;;;;;;;;;5032269;28;20025;-75
2022/01/02 01:27:06;;;;;;;6.65;2.05;;;;;;;;;;5027693;28;20460;-74
2022/01/02 01:29:34;;;;;;;5.68;2.08;;;;;;;;;;5031520;28;20048;-75
2022/01/02 01:32:09;;;;;;;5.80;1.80;;;;;;;;;;5031468;28;20029;-75
2022/01/02 01:34:36;;;;;;;5.30;1.52;;;;;;;;;;5027304;28;20100;-75
2022/01/02 01:37:03;;;;;;;5.65;1.40;;;;;;;;;;5032204;28;20164;-74
2022/01/02 01:39:29;;;;;;;3.88;1.45;;;;;;;;;;5031107;28;20025;-75
2022/01/02 01:42:05;;;;;;;6.45;1.65;;;;;;;;;;5032763;28;20025;-74
2022/01/02 01:47:13;;;;;;;5.00;1.55;;;;;;;;;;5032249;28;20026;-74
2022/01/02 01:49:39;;;;;;;1.45;1.10;;;;;;;;;;5028796;28;20048;-74
2022/01/02 01:52:05;;;;;;;5.65;1.88;;;;;;;;;;5032198;28;20030;-74
2022/01/02 01:54:32;;;;;;;5.28;1.90;;;;;;;;;;5029435;28;20029;-75
2022/01/02 01:56:58;;;;;;;5.00;1.67;;;;;;;;;;5024488;28;20029;-75
2022/01/02 01:59:25;;;;;;;4.97;1.30;;;;;;;;;;5035712;28;20017;-75
2022/01/02 02:01:51;;;;;;;3.72;1.52;;;;;;;;;;5030457;28;20482;-75
2022/01/02 02:04:18;;;;;;;3.13;1.52;;;;;;;;;;5028162;28;20017;-74
2022/01/02 02:06:44;;;;;;;2.25;1.20;;;;;;;;;;5025149;28;20036;-75
2022/01/02 02:09:10;;;;;;;6.35;1.70;;;;;;;;;;5021762;28;20584;-75
2022/01/02 02:11:38;;;;;;;3.70;1.58;;;;;;;;;;5026120;28;20034;-75
2022/01/02 02:14:06;;;;;;;2.88;1.60;;;;;;;;;;5021650;28;20484;-74
2022/01/02 02:16:33;;;;;;;3.83;1.88;;;;;;;;;;5024635;28;20179;-76
2022/01/02 02:18:59;;;;;;;5.57;1.60;;;;;;;;;;5024722;28;20026;-75
2022/01/02 02:21:29;;;;;;;6.75;1.60;;;;;;;;;;5031390;28;20095;-75
2022/01/02 02:23:55;;;;;;;6.20;1.55;;;;;;;;;;5026173;28;20044;-75
2022/01/02 02:26:21;;;;;;;4.68;1.60;;;;;;;;;;5026307;28;20031;-75
2022/01/02 02:28:47;;;;;;;3.90;1.40;;;;;;;;;;5010235;28;20064;-75
2022/01/02 02:31:13;;;;;;;5.65;1.58;;;;;;;;;;5014112;28;20552;-75
2022/01/02 02:33:40;;;;;;;2.05;1.20;;;;;;;;;;5028947;28;20033;-74
2022/01/02 02:36:08;;;;;;;3.67;1.40;;;;;;;;;;5028625;28;20230;-75
2022/01/02 02:38:34;;;;;;;6.57;1.92;;;;;;;;;;5028389;28;20029;-75
2022/01/02 02:41:00;;;;;;;3.10;1.50;;;;;;;;;;5030500;28;20045;-74
2022/01/02 02:43:35;;;;;;;2.97;1.42;;;;;;;;;;5029400;28;20048;-75
2022/01/02 02:54:06;;;;;;;2.80;1.92;;;;;;;;;;5030940;28;20040;-75
2022/01/02 02:56:55;;;;;;;3.28;1.42;;;;;;;;;;5031804;28;20024;-75
2022/01/02 02:59:21;;;;;;;3.90;1.27;;;;;;;;;;5033199;28;20120;-75
2022/01/02 03:01:47;;;;;;;5.13;1.60;;;;;;;;;;5022706;28;20025;-75
2022/01/02 03:04:14;;;;;;;4.70;1.65;;;;;;;;;;5027862;28;20027;-75
2022/01/02 03:06:40;;;;;;;3.97;1.55;;;;;;;;;;5012116;28;20574;-75
2022/01/02 03:09:08;;;;;;;2.95;1.40;;;;;;;;;;5027441;28;20087;-75
2022/01/02 03:11:36;;;;;;;4.82;1.70;;;;;;;;;;5021842;28;20025;-75
2022/01/02 03:14:02;;;;;;;2.38;1.40;;;;;;;;;;5029421;28;20038;-75
2022/01/02 03:16:28;;;;;;;4.05;1.50;;;;;;;;;;5029616;28;20051;-75
2022/01/02 03:18:55;;;;;;;3.53;1.40;;;;;;;;;;5011464;28;20033;-75
2022/01/02 03:21:21;;;;;;;3.35;1.60;;;;;;;;;;5028773;28;20095;-75
2022/01/02 03:23:48;;;;;;;5.43;1.65;;;;;;;;;;5029144;28;20040;-75
2022/01/02 03:26:14;;;;;;;4.40;1.67;;;;;;;;;;5032973;28;20416;-76
2022/01/02 03:28:40;;;;;;;4.10;1.52;;;;;;;;;;5028264;28;20042;-75
2022/01/02 03:31:07;;;;;;;3.05;1.42;;;;;;;;;;5025948;28;20121;-75
2022/01/02 03:33:33;;;;;;;4.50;1.48;;;;;;;;;;5012521;28;20029;-74
2022/01/02 03:35:59;;;;;;;3.72;1.70;;;;;;;;;;5030754;28;20036;-75
2022/01/02 03:38:26;;;;;;;2.63;1.25;;;;;;;;;;5024785;28;20029;-75
2022/01/02 03:40:52;;;;;;;2.15;1.38;;;;;;;;;;5024224;28;20118;-75
2022/01/02 03:43:18;;;;;;;3.38;1.35;;;;;;;;;;5027548;28;20029;-74
2022/01/02 03:45:45;;;;;;;4.82;1.65;;;;;;;;;;5028670;28;20018;-75
2022/01/02 03:48:11;;;;;;;3.03;1.63;;;;;;;;;;5026449;28;20401;-75
2022/01/02 03:50:37;;;;;;;1.67;1.20;;;;;;;;;;5036870;28;20021;-75
2022/01/02 03:53:04;;;;;;;3.75;1.65;;;;;;;;;;5032837;28;20775;-75
2022/01/02 03:55:30;;;;;;;3.55;1.50;;;;;;;;;;5028170;28;20108;-75
2022/01/02 03:57:56;;;;;;;3.10;1.40;;;;;;;;;;5027388;28;20270;-75
2022/01/02 04:00:22;;;;;;;3.50;1.70;;;;;;;;;;5033477;28;20120;-75
2022/01/02 04:02:49;;;;;;;4.78;1.60;;;;;;;;;;5002567;28;20028;-74
2022/01/02 04:05:16;;;;;;;4.85;1.60;;;;;;;;;;5015014;28;20576;-75
2022/01/02 04:07:43;;;;;;;3.53;1.77;;;;;;;;;;5019526;28;20140;-75
2022/01/02 04:10:11;;;;;;;3.30;1.58;;;;;;;;;;5020531;28;20040;-75
2022/01/02 04:12:37;;;;;;;3.38;1.50;;;;;;;;;;5030459;28;20026;-74
2022/01/02 04:15:05;;;;;;;3.25;1.40;;;;;;;;;;5019089;28;20490;-75
2022/01/02 04:17:34;;;;;;;2.55;1.23;;;;;;;;;;5023409;28;20028;-74
2022/01/02 04:20:01;;;;;;;3.42;1.30;;;;;;;;;;5011824;28;20037;-75
2022/01/02 04:22:27;;;;;;;3.92;1.63;;;;;;;;;;5003480;28;20069;-75
2022/01/02 04:24:53;;;;;;;3.35;1.80;;;;;;;;;;5035243;28;20059;-75
2022/01/02 04:27:20;;;;;;;5.28;1.42;;;;;;;;;;5021135;28;20021;-74
2022/01/02 04:29:47;;;;;;;3.92;1.50;;;;;;;;;;5020235;28;20112;-75
2022/01/02 04:32:13;;;;;;;2.30;1.35;;;;;;;;;;5019008;28;20030;-75
2022/01/02 04:34:39;;;;;;;3.38;1.27;;;;;;;;;;5027215;28;20058;-75
2022/01/02 04:37:06;;;;;;;4.63;1.40;;;;;;;;;;5019308;28;20032;-75
2022/01/02 04:39:32;;;;;;;4.85;1.77;;;;;;;;;;5039281;28;20036;-75
2022/01/02 04:41:59;;;;;;;2.47;1.20;;;;;;;;;;5042355;28;20031;-75
2022/01/02 04:44:25;;;;;;;5.70;1.85;;;;;;;;;;5042968;28;20124;-75
2022/01/02 04:46:51;;;;;;;2.95;1.40;;;;;;;;;;5042733;28;20033;-74
2022/01/02 04:49:17;;;;;;;2.65;1.30;;;;;;;;;;5041984;28;20547;-75
2022/01/02 04:51:43;;;;;;;4.50;1.55;;;;;;;;;;5041422;28;20647;-75
2022/01/02 04:54:10;;;;;;;2.67;1.60;;;;;;;;;;5042773;28;20640;-75
2022/01/02 04:56:36;;;;;;;2.92;1.33;;;;;;;;;;5042474;28;20029;-75
2022/01/02 04:59:02;;;;;;;4.38;1.60;;;;;;;;;;5042198;28;20017;-75
2022/01/02 05:01:28;;;;;;;6.70;1.40;;;;;;;;;;5042108;28;20043;-75
2022/01/02 05:03:54;;;;;;;3.50;1.55;;;;;;;;;;5028944;28;20067;-75
2022/01/02 05:06:20;;;;;;;4.78;1.38;;;;;;;;;;5023099;28;20037;-75
2022/01/02 05:08:46;;;;;;;2.53;1.35;;;;;;;;;;5022778;28;20125;-74
2022/01/02 05:11:13;;;;;;;4.95;1.52;;;;;;;;;;5022306;28;20021;-75
2022/01/02 05:13:40;;;;;;;2.00;1.48;;;;;;;;;;5020439;28;20021;-75
2022/01/02 05:16:06;;;;;;;2.28;1.27;;;;;;;;;;5022015;28;20474;-75
2022/01/02 05:18:33;;;;;;;4.25;1.67;;;;;;;;;;5040885;28;20029;-75
2022/01/02 05:20:59;;;;;;;2.00;1.25;;;;;;;;;;5040255;28;20044;-75
2022/01/02 05:23:25;;;;;;;2.85;1.35;;;;;;;;;;5042174;28;20566;-75
2022/01/02 05:25:52;;;;;;;2.17;1.42;;;;;;;;;;5037199;28;20020;-74
2022/01/02 05:28:18;;;;;;;2.40;1.30;;;;;;;;;;5022921;28;20095;-75
2022/01/02 05:30:44;;;;;;;3.33;1.17;;;;;;;;;;5026500;28;20467;-75
2022/01/02 05:33:11;;;;;;;2.85;1.42;;;;;;;;;;5013465;28;20037;-75
2022/01/02 05:35:37;;;;;;;2.40;1.30;;;;;;;;;;5024579;28;20021;-74
2022/01/02 05:38:04;;;;;;;2.28;1.30;;;;;;;;;;5014263;28;20029;-75
2022/01/02 05:40:34;;;;;;;2.60;1.13;;;;;;;;;;5027086;28;20028;-75
2022/01/02 05:43:04;;;;;;;6.05;1.40;;;;;;;;;;5034586;28;20028;-75
2022/01/02 05:45:31;;;;;;;3.33;1.40;;;;;;;;;;5032151;28;20041;-75
2022/01/02 05:47:57;;;;;;;3.47;1.33;;;;;;;;;;5035668;28;20390;-75
2022/01/02 05:50:24;;;;;;;2.78;1.20;;;;;;;;;;5035386;28;20033;-74
2022/01/02 05:52:50;;;;;;;3.78;1.50;;;;;;;;;;5028262;28;20764;-75
2022/01/02 05:55:16;;;;;;;3.20;1.25;;;;;;;;;;5027068;28;20033;-75
2022/01/02 05:57:43;;;;;;;4.05;1.33;;;;;;;;;;5023584;28;20029;-74
2022/01/02 06:00:09;;;;;;;2.03;1.27;;;;;;;;;;5030042;28;20025;-75
2022/01/02 06:02:36;;;;;;;3.67;1.63;;;;;;;;;;5029662;28;20067;-74
2022/01/02 06:05:03;;;;;;;2.15;1.08;;;;;;;;;;5027220;28;20098;-74
2022/01/02 06:07:33;;;;;;;3.13;1.50;;;;;;;;;;5032211;28;20041;-76
2022/01/02 06:09:59;;;;;;;2.42;1.40;;;;;;;;;;5034545;28;20025;-75
2022/01/02 06:12:25;;;;;;;3.53;1.85;;;;;;;;;;5034669;28;20484;-75
2022/01/02 06:14:51;;;;;;;3.78;1.60;;;;;;;;;;5034588;28;20029;-75
2022/01/02 06:17:17;;;;;;;2.42;1.35;;;;;;;;;;5009638;28;20025;-74
2022/01/02 06:19:44;;;;;;;4.90;1.58;;;;;;;;;;5027315;28;20048;-75
2022/01/02 06:22:10;;;;;;;2.97;1.60;;;;;;;;;;5022286;28;20083;-75
2022/01/02 06:24:36;;;;;;;3.13;1.60;;;;;;;;;;5031609;28;20036;-75
2022/01/02 06:27:02;;;;;;;3.13;1.48;;;;;;;;;;5060787;28;20027;-74
2022/01/02 06:29:28;;;;;;;2.08;1.52;;;;;;;;;;5042868;28;20041;-74
2022/01/02 06:31:57;;;;;;;3.67;1.77;;;;;;;;;;5021974;28;20334;-75
2022/01/02 06:34:23;;;;;;;3.22;1.83;;;;;;;;;;5029951;28;20374;-75
2022/01/02 06:36:49;;;;;;;3.05;1.50;;;;;;;;;;5030132;28;20076;-75
2022/01/02 06:39:15;;;;;;;3.20;1.67;;;;;;;;;;5034772;28;20029;-75
2022/01/02 06:41:42;;;;;;;2.85;1.90;;;;;;;;;;5026480;28;20592;-75
2022/01/02 06:44:08;;;;;;;2.45;1.60;;;;;;;;;;5033164;28;20033;-73
2022/01/02 06:46:34;;;;;;;2.97;1.52;;;;;;;;;;5032077;28;20033;-74
2022/01/02 06:49:00;;;;;;;3.85;1.85;;;;;;;;;;5028024;28;20521;-73
2022/01/02 06:51:27;;;;;;;3.72;2.03;;;;;;;;;;5032695;28;20795;-73
2022/01/02 06:53:53;;;;;;;3.22;1.95;;;;;;;;;;5027790;28;20110;-72
2022/01/02 06:56:19;;;;;;;3.47;1.92;;;;;;;;;;5034261;28;20722;-72
2022/01/02 06:58:45;;;;;;;3.00;1.63;;;;;;;;;;5046746;28;20043;-72
2022/01/02 07:01:13;;;;;;;5.50;1.88;;;;;;;;;;5048007;28;20140;-72
2022/01/02 07:03:39;;;;;;;19.98;2.88;;;;;;;;;;5040652;28;20087;-72
2022/01/02 07:06:05;;;;;;;5.82;1.83;;;;;;;;;;5031016;28;20032;-72
2022/01/02 07:08:31;;;;;;;3.35;1.85;;;;;;;;;;5015815;28;20090;-72
2022/01/02 07:10:58;;;;;;;2.55;1.75;;;;;;;;;;5024468;28;20033;-71
2022/01/02 07:13:24;;;;;;;3.88;1.40;;;;;;;;;;5031414;28;20025;-71
2022/01/02 07:15:50;;;;;;;5.18;1.30;;;;;;;;;;5007434;28;20021;-72
2022/01/02 07:18:17;;;;;;;3.67;1.70;;;;;;;;;;5022297;28;20034;-72
2022/01/02 07:20:43;;;;;;;3.78;1.60;;;;;;;;;;5021961;28;20037;-72
2022/01/02 07:23:09;;;;;;;5.50;2.30;;;;;;;;;;5023601;28;20041;-72
2022/01/02 07:25:35;;;;;;;5.25;2.88;;;;;;;;;;5026187;28;20022;-72
2022/01/02 07:28:02;;;;;;;11.90;6.65;;;;;;;;;;5020402;28;20029;-71
2022/01/02 07:30:28;;;;;;;8.25;4.53;;;;;;;;;;5022042;28;20060;-72
2022/01/02 07:32:54;;;;;;;3.60;1.42;;;;;;;;;;5021860;28;20022;-72
2022/01/02 07:35:20;;;;;;;4.13;1.60;;;;;;;;;;5021810;28;20033;-73
2022/01/02 07:37:46;;;;;;;3.17;1.60;;;;;;;;;;5038732;28;20020;-73
2022/01/02 07:40:12;;;;;;;2.67;1.50;;;;;;;;;;5061635;28;20021;-73
2022/01/02 07:42:39;;;;;;;3.05;1.63;;;;;;;;;;5043640;28;20111;-73
2022/01/02 07:45:05;;;;;;;4.55;1.73;;;;;;;;;;5043812;28;20031;-73
2022/01/02 07:47:31;;;;;;;2.08;1.40;;;;;;;;;;5007737;28;20025;-73
2022/01/02 07:49:57;;;;;;;4.72;1.88;;;;;;;;;;5035928;28;20033;-73
2022/01/02 07:52:24;;;;;;;2.25;1.38;;;;;;;;;;5031990;28;20021;-73
2022/01/02 07:54:50;;;;;;;4.57;1.50;;;;;;;;;;5035922;28;20033;-74
2022/01/02 07:57:16;;;;;;;2.70;1.50;;;;;;;;;;5036478;28;20023;-73
2022/01/02 07:59:42;;;;;;;2.95;1.60;;;;;;;;;;5039871;28;20087;-73
2022/01/02 08:02:08;;;;;;;2.45;1.42;;;;;;;;;;5041213;28;20445;-74
2022/01/02 08:04:34;;;;;;;2.05;1.30;;;;;;;;;;5039723;28;20068;-74
2022/01/02 08:07:01;;;;;;;4.10;1.30;;;;;;;;;;5040473;28;20052;-73
2022/01/02 08:09:27;;;;;;;4.03;1.55;;;;;;;;;;5038607;28;20033;-74
2022/01/02 08:11:53;;;;;;;1.98;1.30;;;;;;;;;;5020150;28;20060;-74
2022/01/02 08:14:21;;;;;;;5.55;1.58;;;;;;;;;;5028296;28;20021;-73
2022/01/02 08:16:47;;;;;;;2.47;1.40;;;;;;;;;;5039672;28;20489;-74
2022/01/02 08:19:13;;;;;;;4.28;1.70;;;;;;;;;;5033553;28;20033;-74
2022/01/02 08:21:39;;;;;;;3.30;1.50;;;;;;;;;;5038431;28;20050;-74
2022/01/02 08:24:06;;;;;;;3.83;1.55;;;;;;;;;;5033865;28;20037;-74
2022/01/02 08:26:32;;;;;;;4.65;2.28;;;;;;;;;;5024021;28;20367;-74
2022/01/02 08:29:01;;;;;;;3.90;1.58;;;;;;;;;;5054480;28;20048;-73
2022/01/02 08:31:31;;;;;;;2.55;1.60;;;;;;;;;;5044265;28;20495;-74
2022/01/02 08:33:58;;;;;;;4.53;2.85;;;;;;;;;;5054722;28;20032;-74
2022/01/02 08:36:24;;;;;;;6.13;2.90;;;;;;;;;;5041015;28;20509;-74
2022/01/02 08:38:51;;;;;;;2.97;1.80;;;;;;;;;;5010030;28;20196;-74
2022/01/02 08:41:17;;;;;;;7.57;3.10;;;;;;;;;;5044306;28;20476;-74
2022/01/02 08:43:43;;;;;;;12.43;6.55;;;;;;;;;;5044619;28;20427;-74
2022/01/02 08:46:10;;;;;;;10.35;5.80;;;;;;;;;;5045826;28;20021;-74
2022/01/02 08:48:36;;;;;;;17.90;7.30;;;;;;;;;;5043039;28;20633;-74
2022/01/02 08:51:03;;;;;;;3.40;2.05;;;;;;;;;;5014665;28;20060;-74
2022/01/02 08:53:31;;;;;;;3.35;2.25;;;;;;;;;;5008129;28;20060;-73
2022/01/02 08:55:57;;;;;;;4.65;3.20;;;;;;;;;;5024549;28;20036;-73
2022/01/02 08:58:23;;;;;;;4.82;2.22;;;;;;;;;;5024590;28;20112;-73
2022/01/02 09:00:49;;;;;;;4.28;1.80;;;;;;;;;;5041026;28;20056;-73
2022/01/02 09:03:16;;;;;;;3.40;1.85;;;;;;;;;;5024387;28;20033;-73
2022/01/02 09:05:42;;;;;;;6.68;2.20;;;;;;;;;;5026890;28;20470;-74
2022/01/02 09:08:08;;;;;;;6.82;3.42;;;;;;;;;;5042189;28;20560;-73
2022/01/02 09:10:34;;;;;;;5.35;2.80;;;;;;;;;;5044014;28;20036;-73
2022/01/02 09:13:00;;;;;;;2.50;1.90;;;;;;;;;;5018132;28;20045;-73
2022/01/02 09:15:26;;;;;;;4.57;1.80;;;;;;;;;;5032550;28;20159;-73
2022/01/02 09:17:53;;;;;;;2.97;1.85;;;;;;;;;;5043837;28;20033;-73
2022/01/02 09:20:20;;;;;;;5.25;2.28;;;;;;;;;;5031798;28;20030;-73
2022/01/02 09:22:47;;;;;;;3.65;1.80;;;;;;;;;;5049452;28;20032;-73
2022/01/02 09:25:13;;;;;;;4.72;2.05;;;;;;;;;;5032858;28;20037;-73
2022/01/02 09:27:41;;;;;;;3.65;2.35;;;;;;;;;;5039239;28;20025;-74
2022/01/02 09:30:08;;;;;;;5.95;2.50;;;;;;;;;;5006972;28;20128;-72
2022/01/02 09:32:37;;;;;;;4.55;2.10;;;;;;;;;;5032252;28;20017;-71
2022/01/02 09:35:04;;;;;;;2.45;1.92;;;;;;;;;;5044213;28;20029;-72
2022/01/02 09:37:30;;;;;;;3.97;2.10;;;;;;;;;;5049162;28;20028;-74
2022/01/02 09:39:56;;;;;;;2.95;1.83;;;;;;;;;;5036495;28;20113;-74
2022/01/02 09:42:23;;;;;;;5.70;2.58;;;;;;;;;;5026919;28;20025;-73
2022/01/02 09:44:49;;;;;;;7.47;2.00;;;;;;;;;;5036729;28;20500;-73
2022/01/02 09:47:19;;;;;;;4.65;2.28;;;;;;;;;;5041312;28;20035;-73
2022/01/02 09:49:46;;;;;;;4.93;2.30;;;;;;;;;;5039132;28;20095;-74
2022/01/02 09:52:13;;;;;;;5.35;3.33;;;;;;;;;;5035700;28;20389;-74
2022/01/02 09:54:39;;;;;;;8.77;3.60;;;;;;;;;;5027482;28;20029;-73
2022/01/02 09:57:05;;;;;;;6.50;3.72;;;;;;;;;;5023389;28;20040;-73
2022/01/02 09:59:31;;;;;;;5.88;3.00;;;;;;;;;;5039536;28;20519;-73
2022/01/02 10:01:59;;;;;;;4.57;2.90;;;;;;;;;;5029586;28;20029;-73
2022/01/02 10:04:32;;;;;;;4.90;2.72;;;;;;;;;;5035816;28;20091;-73
2022/01/02 10:06:58;;;;;;;3.33;2.15;;;;;;;;;;5037395;28;20036;-73
2022/01/02 10:09:30;;;;;;;5.90;2.78;;;;;;;;;;5025125;28;20033;-74
2022/01/02 10:12:15;;;;;;;5.85;2.83;;;;;;;;;;5037596;28;20051;-73
2022/01/02 10:14:41;;;;;;;3.42;2.40;;;;;;;;;;5026840;28;20087;-72
2022/01/02 10:17:07;;;;;;;4.70;2.80;;;;;;;;;;5025020;28;20025;-73
2022/01/02 10:19:38;;;;;;;6.10;3.00;;;;;;;;;;5021718;28;20039;-73
2022/01/02 10:22:05;;;;;;;3.90;2.50;;;;;;;;;;5023943;28;20073;-72
2022/01/02 10:24:33;;;;;;;5.25;3.20;;;;;;;;;;5041674;28;20025;-72
2022/01/02 10:27:03;;;;;;;7.00;4.10;;;;;;;;;;5025640;28;20029;-72
2022/01/02 10:29:39;;;;;;;7.70;6.22;;;;;;;;;;5033657;28;20128;-72
2022/01/02 10:32:25;;;;;;;6.32;4.55;;;;;;;;;;5025753;28;20401;-71
2022/01/02 10:34:52;;;;;;;7.95;3.53;;;;;;;;;;5021731;28;20037;-71
2022/01/02 10:37:27;;;;;;;5.25;3.20;;;;;;;;;;5036922;28;20029;-72
2022/01/02 10:39:53;;;;;;;7.47;3.70;;;;;;;;;;5035403;28;20025;-72
2022/01/02 10:42:20;;;;;;;5.28;3.20;;;;;;;;;;5046653;28;20427;-72
2022/01/02 10:44:46;;;;;;;4.35;3.45;;;;;;;;;;5023324;28;20037;-74
2022/01/02 10:47:16;;;;;;;5.68;3.50;;;;;;;;;;5025550;28;20049;-73
2022/01/02 10:49:59;;;;;;;6.95;4.10;;;;;;;;;;5023369;28;20049;-73
2022/01/02 10:52:33;;;;;;;20.00;12.05;;;;;;;;;;5036490;28;20541;-72
2022/01/02 10:55:05;;;;;;;9.25;6.70;;;;;;;;;;5037964;28;20106;-73
2022/01/02 10:57:31;;;;;;;7.63;5.85;;;;;;;;;;5029969;28;20060;-72
2022/01/02 10:59:58;;;;;;;11.50;7.35;;;;;;;;;;5037862;28;20059;-73
2022/01/02 11:02:25;;;;;;;9.27;5.97;;;;;;;;;;5039598;28;20381;-74
2022/01/02 11:04:57;;;;;;;13.93;9.05;;;;;;;;;;5030699;28;20033;-74
2022/01/02 11:07:24;;;;;;;10.07;7.38;;;;;;;;;;5039120;28;20028;-72
2022/01/02 11:09:55;;;;;;;12.20;7.43;;;;;;;;;;5033320;28;20474;-75
2022/01/02 11:12:22;;;;;;;9.10;7.40;;;;;;;;;;5030289;28;20021;-72
2022/01/02 11:14:49;;;;;;;8.52;6.53;;;;;;;;;;5027209;28;20032;-72
2022/01/02 11:17:16;;;;;;;5.85;3.45;;;;;;;;;;5031178;28;20021;-71
2022/01/02 11:19:43;;;;;;;5.47;3.20;;;;;;;;;;5026568;28;20023;-70
2022/01/02 11:22:24;;;;;;;5.05;3.05;;;;;;;;;;5026318;28;20456;-71
2022/01/02 11:24:55;;;;;;;4.25;3.13;;;;;;;;;;5030298;28;20018;-71
2022/01/02 11:27:34;;;;;;;4.00;3.30;;;;;;;;;;5029967;28;20041;-71
2022/01/02 11:30:20;;;;;;;7.93;3.90;;;;;;;;;;5026630;28;20103;-71
2022/01/02 11:33:00;;;;;;;7.10;3.22;;;;;;;;;;5032291;28;20017;-70
2022/01/02 11:35:27;;;;;;;6.53;4.45;;;;;;;;;;5037143;28;20086;-71
2022/01/02 11:37:56;;;;;;;8.60;4.45;;;;;;;;;;5026685;28;20033;-77
2022/01/02 11:40:42;;;;;;;5.30;3.40;;;;;;;;;;5035974;28;20028;-82
2022/01/02 11:43:08;;;;;;;3.15;2.75;;;;;;;;;;5027724;28;20033;-73
2022/01/02 11:45:41;;;;;;;6.68;3.30;;;;;;;;;;5038816;28;20037;-71
2022/01/02 11:48:40;;;;;;;4.88;3.40;;;;;;;;;;5036004;28;20033;-71
2022/01/02 11:51:06;;;;;;;5.10;3.20;;;;;;;;;;4983753;28;20153;-71
2022/01/02 11:53:36;;;;;;;5.32;3.30;;;;;;;;;;5031036;28;20036;-73
2022/01/02 11:56:03;;;;;;;5.35;3.55;;;;;;;;;;5028570;28;20405;-71
2022/01/02 11:58:55;;;;;;;5.70;3.22;;;;;;;;;;5036893;28;20021;-73
2022/01/02 12:01:40;;;;;;;6.85;4.15;;;;;;;;;;5022194;28;20051;-70
2022/01/02 12:04:06;;;;;;;5.68;3.38;;;;;;;;;;5013035;28;20029;-70
2022/01/02 12:06:33;;;;;;;7.07;3.55;;;;;;;;;;5024912;28;20256;-72
2022/01/02 12:09:00;;;;;;;5.00;3.38;;;;;;;;;;5042655;28;20040;-72
2022/01/02 12:11:32;;;;;;;5.63;3.67;;;;;;;;;;5034373;28;20025;-73
2022/01/02 12:14:12;;;;;;;4.82;3.65;;;;;;;;;;5043789;28;20039;-74
2022/01/02 12:16:42;;;;;;;5.40;3.78;;;;;;;;;;5043535;28;20421;-74
2022/01/02 12:19:08;;;;;;;5.20;3.80;;;;;;;;;;5041159;28;20025;-73
2022/01/02 12:21:35;;;;;;;6.57;3.70;;;;;;;;;;5036368;28;20576;-72
2022/01/02 12:24:04;;;;;;;5.40;3.38;;;;;;;;;;5036345;28;20044;-72
2022/01/02 12:26:33;;;;;;;4.85;3.70;;;;;;;;;;5036959;28;20497;-72
2022/01/02 12:29:02;;;;;;;4.78;3.25;;;;;;;;;;5035459;28;20063;-72
2022/01/02 12:31:30;;;;;;;6.97;3.58;;;;;;;;;;5036166;28;20386;-72
2022/01/02 12:34:03;;;;;;;5.00;3.90;;;;;;;;;;5026411;28;20057;-73
2022/01/02 12:36:29;;;;;;;6.25;3.83;;;;;;;;;;5025341;28;20033;-72
2022/01/02 12:38:56;;;;;;;5.75;3.80;;;;;;;;;;5036677;28;20037;-74
2022/01/02 12:41:27;;;;;;;5.65;4.45;;;;;;;;;;5031934;28;20101;-72
2022/01/02 12:44:00;;;;;;;6.20;4.03;;;;;;;;;;5036536;28;20063;-76
2022/01/02 12:46:44;;;;;;;5.50;3.83;;;;;;;;;;5039095;28;20108;-73
2022/01/02 12:49:21;;;;;;;6.72;4.20;;;;;;;;;;5036386;28;20159;-73
2022/01/02 12:51:48;;;;;;;4.95;3.90;;;;;;;;;;5025463;28;20520;-72
2022/01/02 12:54:16;;;;;;;7.90;4.30;;;;;;;;;;5006313;28;20033;-72
2022/01/02 12:56:43;;;;;;;7.10;4.43;;;;;;;;;;5026334;28;20115;-73
2022/01/02 12:59:13;;;;;;;7.47;5.22;;;;;;;;;;5034837;28;20109;-72
2022/01/02 13:01:48;;;;;;;6.00;4.60;;;;;;;;;;5023037;28;20021;-73
2022/01/02 13:04:17;;;;;;;4.80;3.42;;;;;;;;;;5040493;28;20035;-75
2022/01/02 13:06:46;;;;;;;5.53;3.83;;;;;;;;;;5039477;28;20032;-75
2022/01/02 13:09:13;;;;;;;7.25;4.78;;;;;;;;;;5024188;28;20109;-74
2022/01/02 13:11:39;;;;;;;5.07;3.80;;;;;;;;;;5038098;28;20075;-72
2022/01/02 13:14:05;;;;;;;5.88;3.58;;;;;;;;;;5038836;28;20041;-72
2022/01/02 13:16:32;;;;;;;5.68;3.40;;;;;;;;;;5033925;28;20068;-76
2022/01/02 13:18:58;;;;;;;8.02;3.88;;;;;;;;;;5036300;28;20035;-76
2022/01/02 13:21:25;;;;;;;7.00;3.53;;;;;;;;;;5042254;28;20045;-77
2022/01/02 13:23:51;;;;;;;5.13;3.55;;;;;;;;;;5022221;28;20068;-74
2022/01/02 13:26:21;;;;;;;6.45;3.40;;;;;;;;;;5020061;28;20033;-73
2022/01/02 13:28:47;;;;;;;5.07;3.42;;;;;;;;;;5036076;28;20033;-74
2022/01/02 13:31:24;;;;;;;5.35;3.50;;;;;;;;;;5034322;28;20052;-74
2022/01/02 13:33:50;;;;;;;5.22;3.28;;;;;;;;;;5033054;28;20025;-73
2022/01/02 13:36:18;;;;;;;8.60;6.38;;;;;;;;;;5034591;28;20052;-73
2022/01/02 13:38:52;;;;;;;5.13;3.13;;;;;;;;;;5027114;28;20631;-73
2022/01/02 13:41:18;;;;;;;7.32;3.50;;;;;;;;;;5031458;28;20059;-76
2022/01/02 13:43:45;;;;;;;7.32;2.95;;;;;;;;;;5031311;28;20131;-74
2022/01/02 13:46:11;;;;;;;5.20;2.67;;;;;;;;;;5034928;28;20029;-75
2022/01/02 13:48:37;;;;;;;6.13;2.90;;;;;;;;;;5028508;28;20036;-75
2022/01/02 13:51:12;;;;;;;4.05;2.60;;;;;;;;;;5027407;28;20021;-73
2022/01/02 13:53:39;;;;;;;6.20;3.47;;;;;;;;;;5025280;28;20020;-75
2022/01/02 13:56:06;;;;;;;6.15;3.20;;;;;;;;;;5029424;28;20356;-73
2022/01/02 13:58:33;;;;;;;3.85;2.67;;;;;;;;;;5023540;28;20017;-75
2022/01/02 14:01:01;;;;;;;4.90;3.33;;;;;;;;;;5023675;28;20108;-75
2022/01/02 14:03:35;;;;;;;5.30;2.53;;;;;;;;;;5028492;28;20037;-76
2022/01/02 14:06:11;;;;;;;4.78;2.47;;;;;;;;;;5030117;28;20017;-72
2022/01/02 14:08:41;;;;;;;4.30;2.78;;;;;;;;;;5026215;28;20783;-75
2022/01/02 14:11:07;;;;;;;4.22;2.38;;;;;;;;;;5032498;28;20052;-72
2022/01/02 14:13:37;;;;;;;3.05;2.47;;;;;;;;;;5029596;28;20038;-76
2022/01/02 14:16:04;;;;;;;3.17;2.67;;;;;;;;;;5030462;28;21114;-72
2022/01/02 14:18:30;;;;;;;6.15;2.70;;;;;;;;;;5029815;28;20021;-75
2022/01/02 14:21:00;;;;;;;6.07;5.15;;;;;;;;;;5011819;28;20564;-72
2022/01/02 14:23:28;;;;;;;6.28;5.00;;;;;;;;;;5023333;28;20021;-72
2022/01/02 14:25:54;;;;;;;7.13;3.67;;;;;;;;;;5028995;28;20528;-77
2022/01/02 14:28:20;;;;;;;3.20;2.45;;;;;;;;;;5024291;28;20033;-73
2022/01/02 14:30:49;;;;;;;4.97;2.75;;;;;;;;;;5030580;28;20038;-75
2022/01/02 14:33:16;;;;;;;5.30;3.00;;;;;;;;;;5034400;28;20032;-75
2022/01/02 14:35:42;;;;;;;4.63;2.67;;;;;;;;;;5038754;28;20037;-74
2022/01/02 14:38:08;;;;;;;5.07;3.20;;;;;;;;;;5025265;28;20367;-72
2022/01/02 14:40:34;;;;;;;3.70;2.40;;;;;;;;;;5019283;28;20061;-72
2022/01/02 14:43:01;;;;;;;6.47;3.05;;;;;;;;;;5033250;28;20033;-72
2022/01/02 14:45:27;;;;;;;4.22;2.88;;;;;;;;;;5031289;28;20033;-76
2022/01/02 14:47:54;;;;;;;3.92;2.50;;;;;;;;;;5026343;28;20075;-72
2022/01/02 14:50:20;;;;;;;4.72;2.15;;;;;;;;;;5029885;28;20032;-72
2022/01/02 14:52:46;;;;;;;2.78;2.20;;;;;;;;;;5025201;28;20027;-73
2022/01/02 14:55:14;;;;;;;8.80;4.45;;;;;;;;;;5032477;28;20090;-72
2022/01/02 14:57:41;;;;;;;5.43;3.40;;;;;;;;;;5023368;28;20029;-74